Time;durP1;ratioP1;P1;durP2;ratioP2;P2;SDS_P1;SDS_P2;PMS_P1;PMS_P2;Temp;Humidity;BMP_temperature;BMP_pressure;BME280_temperature;BME280_humidity;BME280_pressure;Samples;Min_cycle;Max_cycle;Signal;HPM_P1;HPM_P2
2023/06/24 00:01:50;;;;;;;4.90;4.60;;;20.80;81.80;;;;;;10380629;28;20301;-79
2023/06/24 00:06:58;;;;;;;5.40;5.00;;;20.80;81.70;;;;;;10383274;28;20223;-79
2023/06/24 00:12:01;;;;;;;9.63;4.50;;;20.70;82.50;;;;;;10399091;28;20241;-79
2023/06/24 00:17:03;;;;;;;5.53;5.03;;;20.60;82.10;;;;;;10402472;28;20264;-79
2023/06/24 00:22:07;;;;;;;5.37;4.93;;;20.50;82.30;;;;;;10386442;28;20317;-79
2023/06/24 00:27:09;;;;;;;5.23;4.83;;;20.50;82.50;;;;;;10395271;28;20252;-79
2023/06/24 00:32:11;;;;;;;6.07;5.43;;;20.40;83.30;;;;;;10374459;28;20226;-82
2023/06/24 00:37:15;;;;;;;5.13;4.63;;;20.30;83.90;;;;;;10391257;28;20197;-79
2023/06/24 00:42:17;;;;;;;5.47;5.07;;;20.30;84.00;;;;;;10411770;28;20309;-80
2023/06/24 00:47:20;;;;;;;5.70;5.30;;;20.30;84.00;;;;;;10409055;28;20313;-80
2023/06/24 00:52:23;;;;;;;5.50;5.00;;;20.30;83.90;;;;;;10414237;28;20222;-81
2023/06/24 00:57:25;;;;;;;4.80;4.50;;;20.20;83.70;;;;;;10421870;28;20205;-81
2023/06/24 01:02:28;;;;;;;5.73;5.23;;;20.10;84.00;;;;;;10420189;28;20710;-81
2023/06/24 01:07:35;;;;;;;5.50;5.10;;;20.00;84.00;;;;;;10380954;28;20234;-80
2023/06/24 01:12:40;;;;;;;5.20;4.90;;;20.00;84.50;;;;;;10396101;28;20319;-79
2023/06/24 01:17:49;;;;;;;5.03;4.73;;;20.00;84.70;;;;;;10416960;28;20190;-79
2023/06/24 01:23:21;;;;;;;6.13;4.90;;;20.00;85.20;;;;;;10401805;28;20280;-80
2023/06/24 01:28:42;;;;;;;5.60;5.20;;;20.00;84.20;;;;;;10397657;28;20751;-79
2023/06/24 01:33:51;;;;;;;6.00;5.60;;;20.00;83.80;;;;;;10400496;28;20241;-79
2023/06/24 01:38:59;;;;;;;5.47;5.07;;;19.90;84.20;;;;;;10401651;28;20272;-79
2023/06/24 01:44:02;;;;;;;6.40;5.90;;;19.80;85.10;;;;;;10396770;28;20236;-78
2023/06/24 01:49:08;;;;;;;8.47;6.20;;;19.80;84.60;;;;;;10397158;28;20285;-79
2023/06/24 01:54:14;;;;;;;6.00;5.60;;;19.70;85.20;;;;;;10416278;28;20219;-79
2023/06/24 01:59:18;;;;;;;5.83;5.43;;;19.70;85.80;;;;;;10416585;28;20218;-79
2023/06/24 02:04:23;;;;;;;6.47;5.97;;;19.60;86.40;;;;;;10389770;28;20222;-78
2023/06/24 02:09:26;;;;;;;6.73;6.23;;;19.60;86.30;;;;;;10406379;28;20273;-79
2023/06/24 02:14:30;;;;;;;6.40;5.83;;;19.50;86.90;;;;;;10398431;28;20757;-79
2023/06/24 02:19:34;;;;;;;7.20;6.60;;;19.50;86.90;;;;;;10414933;28;20218;-79
2023/06/24 02:24:37;;;;;;;6.30;5.80;;;19.50;87.60;;;;;;10409148;28;20194;-79
2023/06/24 02:29:40;;;;;;;6.47;5.97;;;19.40;87.70;;;;;;10381472;28;20213;-80
2023/06/24 02:34:44;;;;;;;6.37;5.87;;;19.40;88.00;;;;;;10399484;28;20191;-79
2023/06/24 02:39:46;;;;;;;7.47;6.70;;;19.40;87.60;;;;;;10378820;28;20232;-80
2023/06/24 02:44:48;;;;;;;6.50;6.00;;;19.30;88.00;;;;;;10398530;28;20256;-79
2023/06/24 02:49:53;;;;;;;6.73;6.23;;;19.30;89.00;;;;;;10397716;28;20214;-80
2023/06/24 02:54:55;;;;;;;7.30;6.70;;;19.30;89.20;;;;;;10381058;28;20834;-79
2023/06/24 03:00:20;;;;;;;6.40;6.00;;;19.30;88.80;;;;;;10372018;28;20280;-79
2023/06/24 03:05:57;;;;;;;6.90;6.30;;;19.20;88.20;;;;;;10404405;28;20249;-80
2023/06/24 03:11:01;;;;;;;6.60;5.93;;;19.20;88.10;;;;;;10393187;28;20234;-80
2023/06/24 03:16:12;;;;;;;7.07;6.10;;;19.10;88.90;;;;;;10395738;28;20218;-79
2023/06/24 03:21:28;;;;;;;6.63;6.13;;;19.10;89.40;;;;;;10396281;28;20585;-79
2023/06/24 03:26:35;;;;;;;6.83;6.33;;;19.10;89.70;;;;;;10396987;28;20197;-78
2023/06/24 03:31:43;;;;;;;7.17;6.67;;;19.00;89.30;;;;;;10370888;28;20233;-80
2023/06/24 03:36:47;;;;;;;7.23;6.63;;;19.00;90.00;;;;;;10381633;28;20693;-80
2023/06/24 03:41:51;;;;;;;6.77;6.10;;;18.90;89.70;;;;;;10376171;28;20218;-80
2023/06/24 03:46:53;;;;;;;7.43;6.83;;;18.90;89.80;;;;;;10396049;28;20225;-79
2023/06/24 03:51:57;;;;;;;6.93;6.30;;;18.90;90.50;;;;;;10396510;28;20212;-80
2023/06/24 03:57:00;;;;;;;7.20;6.70;;;19.00;90.50;;;;;;10395497;28;20218;-78
2023/06/24 04:02:02;;;;;;;7.40;6.80;;;19.00;90.20;;;;;;10395406;28;20233;-79
2023/06/24 04:07:06;;;;;;;6.23;5.67;;;19.10;90.20;;;;;;10407308;28;20205;-80
2023/06/24 04:12:09;;;;;;;6.33;5.83;;;19.20;90.30;;;;;;10414529;28;20223;-79
2023/06/24 04:17:11;;;;;;;7.20;6.50;;;19.20;90.50;;;;;;10395425;28;20210;-80
2023/06/24 04:22:14;;;;;;;7.73;7.03;;;19.30;90.20;;;;;;10396336;28;20288;-80
2023/06/24 04:27:17;;;;;;;7.17;6.57;;;19.30;90.50;;;;;;10399814;28;20201;-80
2023/06/24 04:32:19;;;;;;;9.00;6.57;;;19.40;90.40;;;;;;10403212;28;20697;-79
2023/06/24 04:37:24;;;;;;;6.20;5.70;;;19.40;90.50;;;;;;10403557;28;20214;-80
2023/06/24 04:42:28;;;;;;;7.10;6.40;;;19.50;90.20;;;;;;10395701;28;20214;-79
2023/06/24 04:47:30;;;;;;;6.60;6.10;;;19.60;90.30;;;;;;10386386;28;20658;-81
2023/06/24 04:52:33;;;;;;;6.63;6.10;;;19.70;90.40;;;;;;10420575;28;20600;-79
2023/06/24 04:57:36;;;;;;;5.80;5.40;;;19.70;90.10;;;;;;10421583;28;20305;-81
2023/06/24 05:02:38;;;;;;;6.57;6.07;;;19.80;90.00;;;;;;10395393;28;20264;-80
2023/06/24 05:07:41;;;;;;;11.57;6.13;;;19.90;89.90;;;;;;10420062;28;20187;-80
2023/06/24 05:12:43;;;;;;;6.17;5.70;;;19.90;89.70;;;;;;10419889;28;20244;-79
2023/06/24 05:17:45;;;;;;;6.77;6.27;;;19.90;89.90;;;;;;10420085;28;20224;-80
2023/06/24 05:22:49;;;;;;;6.63;6.13;;;20.00;89.90;;;;;;10419604;28;20214;-79
2023/06/24 05:27:51;;;;;;;5.90;5.50;;;20.00;89.60;;;;;;10402246;28;20187;-79
2023/06/24 05:32:53;;;;;;;7.17;6.47;;;20.10;89.50;;;;;;10419712;28;20227;-80
2023/06/24 05:37:56;;;;;;;7.10;6.40;;;20.20;89.70;;;;;;10419021;28;20261;-80
2023/06/24 05:42:58;;;;;;;5.43;4.93;;;20.30;90.10;;;;;;10417229;28;20749;-80
2023/06/24 05:48:00;;;;;;;5.77;5.27;;;20.40;89.40;;;;;;10418449;28;20564;-79
2023/06/24 05:53:04;;;;;;;5.53;5.10;;;20.50;88.60;;;;;;10418313;28;20666;-80
2023/06/24 05:58:06;;;;;;;5.03;4.63;;;20.60;86.70;;;;;;10412973;28;20555;-80
2023/06/24 06:03:09;;;;;;;5.50;5.00;;;20.70;86.90;;;;;;10417291;28;20210;-80
2023/06/24 06:08:12;;;;;;;5.60;5.20;;;20.80;86.60;;;;;;10396664;28;20281;-80
2023/06/24 06:13:14;;;;;;;5.10;4.67;;;20.90;86.80;;;;;;10412148;28;20244;-80
2023/06/24 06:18:16;;;;;;;5.83;5.40;;;21.00;87.60;;;;;;10393684;28;20702;-80
2023/06/24 06:23:20;;;;;;;4.80;4.40;;;21.10;87.40;;;;;;10420606;28;20261;-79
2023/06/24 06:28:22;;;;;;;5.30;4.90;;;21.20;85.90;;;;;;10418308;28;20202;-79
2023/06/24 06:33:24;;;;;;;5.30;4.80;;;21.30;86.10;;;;;;10398533;28;20312;-80
2023/06/24 06:38:28;;;;;;;4.80;4.10;;;21.40;86.70;;;;;;10417444;28;20249;-80
2023/06/24 06:43:29;;;;;;;5.03;4.43;;;21.60;84.90;;;;;;10413949;28;20694;-79
2023/06/24 06:48:32;;;;;;;4.33;4.03;;;21.70;84.30;;;;;;10415723;28;20190;-80
2023/06/24 06:53:35;;;;;;;4.50;4.20;;;22.00;82.60;;;;;;10415843;28;20222;-80
2023/06/24 06:58:38;;;;;;;5.00;4.60;;;22.20;83.80;;;;;;10416350;28;20214;-81
2023/06/24 07:03:40;;;;;;;4.13;3.83;;;22.50;80.60;;;;;;10418057;28;20214;-80
2023/06/24 07:08:43;;;;;;;4.40;4.10;;;22.80;80.30;;;;;;10379946;28;20183;-80
2023/06/24 07:13:46;;;;;;;4.10;3.80;;;23.00;78.80;;;;;;10408001;28;20218;-79
2023/06/24 07:18:48;;;;;;;5.17;4.30;;;23.30;77.80;;;;;;10396369;28;20759;-80
2023/06/24 07:23:52;;;;;;;4.57;3.70;;;23.50;78.30;;;;;;10414691;28;20233;-80
2023/06/24 07:28:54;;;;;;;4.60;4.30;;;23.80;77.70;;;;;;10414526;28;20198;-79
2023/06/24 07:33:56;;;;;;;4.17;3.87;;;24.00;77.00;;;;;;10393168;28;20241;-80
2023/06/24 07:38:59;;;;;;;4.30;3.90;;;24.40;77.00;;;;;;10414635;28;20272;-81
2023/06/24 07:44:02;;;;;;;3.90;3.60;;;24.60;76.20;;;;;;10413072;28;20225;-80
2023/06/24 07:49:04;;;;;;;4.30;3.97;;;24.90;74.10;;;;;;10411364;28;20221;-79
2023/06/24 07:54:07;;;;;;;5.40;4.00;;;25.20;71.40;;;;;;10415827;28;20249;-79
2023/06/24 07:59:09;;;;;;;3.97;3.70;;;25.50;72.00;;;;;;10414697;28;20237;-79
2023/06/24 08:04:11;;;;;;;4.13;3.77;;;25.80;71.80;;;;;;10394256;28;20273;-79
2023/06/24 08:09:16;;;;;;;3.60;3.40;;;26.30;71.10;;;;;;10381407;28;20481;-79
2023/06/24 08:14:18;;;;;;;4.83;4.43;;;26.80;67.50;;;;;;10411831;28;20738;-79
2023/06/24 08:19:20;;;;;;;4.00;3.80;;;27.30;66.00;;;;;;10399698;28;20272;-78
2023/06/24 08:24:23;;;;;;;3.50;3.30;;;27.90;66.90;;;;;;10400906;28;20254;-79
2023/06/24 08:29:26;;;;;;;3.87;3.57;;;28.50;63.40;;;;;;10403199;28;20201;-80
2023/06/24 08:34:28;;;;;;;4.50;4.20;;;29.00;60.90;;;;;;10406133;28;20243;-79
2023/06/24 08:39:31;;;;;;;3.70;3.50;;;29.40;61.40;;;;;;10409840;28;20714;-80
2023/06/24 08:44:33;;;;;;;3.90;3.63;;;29.80;60.30;;;;;;10389804;28;20222;-78
2023/06/24 08:49:40;;;;;;;4.50;4.10;;;30.10;59.60;;;;;;10364102;28;20238;-79
2023/06/24 08:54:48;;;;;;;4.53;3.43;;;30.40;58.40;;;;;;10402711;28;20285;-79
2023/06/24 08:59:50;;;;;;;3.67;3.37;;;30.60;58.40;;;;;;10384036;28;20314;-80
2023/06/24 09:04:52;;;;;;;4.03;3.70;;;30.90;53.90;;;;;;10409604;28;20252;-79
2023/06/24 09:09:56;;;;;;;3.73;3.53;;;31.20;56.00;;;;;;10403427;28;20199;-79
2023/06/24 09:14:58;;;;;;;3.70;3.40;;;31.50;55.80;;;;;;10396053;28;20289;-78
2023/06/24 09:20:05;;;;;;;3.93;3.63;;;32.00;54.50;;;;;;10397611;28;20246;-80
2023/06/24 09:25:09;;;;;;;3.50;3.20;;;32.30;54.40;;;;;;10396832;28;20683;-80
2023/06/24 09:30:20;;;;;;;3.03;2.83;;;32.70;52.50;;;;;;10413915;28;20226;-79
2023/06/24 09:35:23;;;;;;;3.33;3.13;;;33.20;51.00;;;;;;10407816;28;20212;-80
2023/06/24 09:40:27;;;;;;;3.13;2.93;;;33.90;50.50;;;;;;10403255;28;20344;-80
2023/06/24 09:45:31;;;;;;;3.60;3.40;;;34.50;47.60;;;;;;10413966;28;20206;-80
2023/06/24 09:50:35;;;;;;;2.70;2.60;;;35.20;46.20;;;;;;10395811;28;20258;-80
2023/06/24 09:55:43;;;;;;;3.20;3.00;;;36.10;46.60;;;;;;10410281;28;20248;-81
2023/06/24 10:00:45;;;;;;;3.50;3.30;;;37.20;46.00;;;;;;10413677;28;20300;-80
2023/06/24 10:05:48;;;;;;;3.00;2.80;;;38.50;43.50;;;;;;10406314;28;20233;-80
2023/06/24 10:10:51;;;;;;;3.30;3.10;;;39.50;42.90;;;;;;10390042;28;20203;-81
2023/06/24 10:15:54;;;;;;;3.05;2.85;;;39.50;40.20;;;;;;10394842;28;20677;-80
2023/06/24 10:20:56;;;;;;;2.97;2.78;;;40.00;43.40;;;;;;10408702;28;20226;-79
2023/06/24 10:25:59;;;;;;;2.72;2.63;;;40.20;41.50;;;;;;10412182;28;20265;-80
2023/06/24 10:31:01;;;;;;;3.08;2.97;;;39.30;40.70;;;;;;10412046;28;20217;-79
2023/06/24 10:36:04;;;;;;;3.57;3.37;;;37.40;41.60;;;;;;10403036;28;20603;-79
2023/06/24 10:41:18;;;;;;;13.27;12.20;;;35.50;42.30;;;;;;10394340;28;20299;-79
2023/06/24 10:46:20;;;;;;;3.83;3.53;;;33.80;44.20;;;;;;10427600;22;20229;-85
2023/06/24 10:51:23;;;;;;;3.53;3.23;;;32.50;46.60;;;;;;10439955;28;20202;-85
2023/06/24 10:56:33;;;;;;;3.20;3.00;;;31.40;43.50;;;;;;10445896;28;20222;-85
2023/06/24 11:01:35;;;;;;;4.00;3.60;;;30.50;44.30;;;;;;10419158;28;20218;-85
2023/06/24 11:06:38;;;;;;;4.17;3.87;;;29.80;44.70;;;;;;10439364;28;20211;-83
2023/06/24 11:11:41;;;;;;;4.10;3.80;;;29.20;48.00;;;;;;10439817;28;20232;-84
2023/06/24 11:16:44;;;;;;;3.83;3.53;;;28.80;47.60;;;;;;10404904;28;20219;-85
2023/06/24 11:21:46;;;;;;;4.13;3.30;;;28.40;47.60;;;;;;10439953;28;20205;-85
2023/06/24 11:26:50;;;;;;;3.40;3.10;;;28.00;49.60;;;;;;10429793;28;20213;-84
2023/06/24 11:31:52;;;;;;;3.57;3.37;;;27.70;49.20;;;;;;10450061;28;20748;-86
2023/06/24 11:36:54;;;;;;;3.40;3.20;;;27.50;49.30;;;;;;10421721;28;22102;-86
2023/06/24 11:41:59;;;;;;;3.30;3.10;;;27.40;50.00;;;;;;10425595;28;20198;-86
2023/06/24 11:47:06;;;;;;;4.17;3.60;;;27.30;51.00;;;;;;10420211;28;20236;-85
2023/06/24 11:52:08;;;;;;;3.40;3.20;;;27.20;51.70;;;;;;10435131;28;20436;-85
2023/06/24 11:57:12;;;;;;;3.10;2.90;;;27.20;51.60;;;;;;10435843;28;20246;-85
2023/06/24 12:02:15;;;;;;;3.60;3.37;;;27.10;50.70;;;;;;10434975;28;20313;-86
2023/06/24 12:07:17;;;;;;;4.20;3.80;;;27.00;50.30;;;;;;10440855;28;20291;-85
2023/06/24 12:12:20;;;;;;;3.33;3.10;;;26.90;50.50;;;;;;10412520;28;20206;-85
2023/06/24 12:17:23;;;;;;;4.00;3.70;;;26.90;52.40;;;;;;10416109;28;20256;-85
2023/06/24 12:22:25;;;;;;;3.30;3.10;;;27.00;51.70;;;;;;10414331;28;20222;-85
2023/06/24 12:27:29;;;;;;;3.50;3.30;;;27.00;51.40;;;;;;10438005;28;20241;-85
2023/06/24 12:32:31;;;;;;;3.47;3.17;;;27.10;50.80;;;;;;10400892;28;20190;-83
2023/06/24 12:37:34;;;;;;;5.23;3.00;;;27.20;51.80;;;;;;10437036;28;20707;-85
2023/06/24 12:42:37;;;;;;;3.63;3.43;;;27.20;50.00;;;;;;10435713;28;20205;-85
2023/06/24 12:47:40;;;;;;;6.10;5.60;;;27.30;50.60;;;;;;10423740;28;20309;-85
2023/06/24 12:52:42;;;;;;;4.10;3.80;;;27.10;50.60;;;;;;10452828;28;20194;-83
2023/06/24 12:57:46;;;;;;;3.17;2.97;;;27.00;50.20;;;;;;10447664;28;20237;-85
2023/06/24 13:02:48;;;;;;;3.60;3.40;;;27.00;49.60;;;;;;10446789;28;20195;-85
2023/06/24 13:07:50;;;;;;;3.50;3.30;;;26.90;51.30;;;;;;10440017;28;20282;-84
2023/06/24 13:12:53;;;;;;;3.33;3.13;;;26.80;51.40;;;;;;10445581;28;20263;-84
2023/06/24 13:17:56;;;;;;;3.80;3.50;;;26.80;50.50;;;;;;10444305;28;20689;-82
2023/06/24 13:23:00;;;;;;;3.83;3.53;;;26.80;51.60;;;;;;10446757;28;20191;-86
2023/06/24 13:28:04;;;;;;;3.40;3.10;;;26.80;51.00;;;;;;10423999;28;20680;-86
2023/06/24 13:33:06;;;;;;;3.67;3.47;;;26.80;50.00;;;;;;10447765;28;20225;-85
2023/06/24 13:38:08;;;;;;;4.60;3.33;;;26.80;49.40;;;;;;10432112;28;20316;-85
2023/06/24 13:43:15;;;;;;;4.00;3.70;;;26.80;49.60;;;;;;10443983;28;20198;-84
2023/06/24 13:48:17;;;;;;;4.90;4.00;;;26.90;50.30;;;;;;10418512;28;20226;-83
2023/06/24 13:53:19;;;;;;;3.77;3.50;;;26.90;49.60;;;;;;10418514;28;20203;-85
2023/06/24 13:58:22;;;;;;;4.60;4.20;;;26.90;50.10;;;;;;10444910;28;20296;-85
2023/06/24 14:03:25;;;;;;;3.50;3.20;;;26.90;50.30;;;;;;10450823;28;20201;-84
2023/06/24 14:08:27;;;;;;;3.30;3.00;;;26.90;50.70;;;;;;10455620;28;20207;-84
2023/06/24 14:13:31;;;;;;;3.80;3.50;;;26.90;50.10;;;;;;10453093;28;20208;-84
2023/06/24 14:18:34;;;;;;;4.73;3.60;;;27.00;51.50;;;;;;10430744;28;20273;-84
2023/06/24 14:23:36;;;;;;;3.90;3.50;;;27.00;51.00;;;;;;10440961;28;20600;-85
2023/06/24 14:28:40;;;;;;;4.50;4.10;;;27.00;52.10;;;;;;10444704;28;20618;-85
2023/06/24 14:33:42;;;;;;;4.00;3.70;;;27.00;51.90;;;;;;10442857;28;20191;-85
2023/06/24 14:38:44;;;;;;;4.07;3.77;;;27.10;50.50;;;;;;10438858;28;20697;-84
2023/06/24 14:43:48;;;;;;;3.90;3.60;;;27.00;51.80;;;;;;10440674;28;20214;-85
2023/06/24 14:48:50;;;;;;;4.17;3.80;;;27.00;51.00;;;;;;10445146;28;20186;-85
2023/06/24 14:53:52;;;;;;;3.67;3.23;;;27.10;50.50;;;;;;10446677;28;20242;-84
2023/06/24 14:58:55;;;;;;;3.80;3.50;;;27.00;51.70;;;;;;10435066;28;20244;-84
2023/06/24 15:03:58;;;;;;;3.87;3.57;;;26.90;52.20;;;;;;10443099;28;20214;-85
2023/06/24 15:09:00;;;;;;;4.53;4.13;;;26.90;51.20;;;;;;10440413;28;20190;-85
2023/06/24 15:14:03;;;;;;;3.67;3.37;;;27.00;50.80;;;;;;10426955;28;20237;-85
2023/06/24 15:19:05;;;;;;;3.93;3.63;;;27.00;51.00;;;;;;10451744;28;20228;-83
2023/06/24 15:24:07;;;;;;;4.20;3.90;;;27.00;51.50;;;;;;10436438;28;20739;-82
2023/06/24 15:29:11;;;;;;;3.20;3.00;;;27.00;51.00;;;;;;10437594;28;20203;-84
2023/06/24 15:34:14;;;;;;;3.53;3.20;;;27.00;51.90;;;;;;10410225;28;20218;-85
2023/06/24 15:39:16;;;;;;;3.70;3.50;;;26.90;51.60;;;;;;10417026;28;20234;-83
2023/06/24 15:44:20;;;;;;;3.40;3.20;;;27.00;50.90;;;;;;10440074;28;20222;-85
2023/06/24 15:49:22;;;;;;;3.60;3.40;;;26.90;53.30;;;;;;10441869;28;20547;-84
2023/06/24 15:54:24;;;;;;;3.87;3.33;;;26.90;50.70;;;;;;10439071;28;20341;-83
2023/06/24 15:59:27;;;;;;;3.37;3.07;;;26.80;52.50;;;;;;10404088;28;20225;-85
2023/06/24 16:04:31;;;;;;;5.63;4.60;;;26.80;51.20;;;;;;10418965;28;20397;-84
2023/06/24 16:09:33;;;;;;;3.80;3.50;;;26.80;51.30;;;;;;10408086;28;20198;-82
2023/06/24 16:14:36;;;;;;;3.20;3.00;;;26.80;51.80;;;;;;10422284;28;20709;-84
2023/06/24 16:19:39;;;;;;;3.47;3.27;;;26.90;51.80;;;;;;10442199;28;20747;-86
2023/06/24 16:24:41;;;;;;;4.90;3.67;;;27.00;52.10;;;;;;10446446;28;20221;-85
2023/06/24 16:29:44;;;;;;;2.90;2.70;;;26.90;51.60;;;;;;10411655;28;20191;-85
2023/06/24 16:34:46;;;;;;;3.90;3.63;;;26.90;54.70;;;;;;10452251;28;20229;-85
2023/06/24 16:39:49;;;;;;;3.67;3.47;;;26.90;52.20;;;;;;10448640;28;20217;-85
2023/06/24 16:44:53;;;;;;;4.93;3.73;;;26.90;51.80;;;;;;10448517;28;20260;-85
2023/06/24 16:49:55;;;;;;;3.87;3.57;;;26.90;51.80;;;;;;10438686;28;20241;-85
2023/06/24 16:54:59;;;;;;;5.37;3.73;;;26.90;51.50;;;;;;10437051;28;20215;-84
2023/06/24 17:00:02;;;;;;;3.80;3.50;;;26.90;52.10;;;;;;10456615;28;20680;-85
2023/06/24 17:05:05;;;;;;;3.50;3.30;;;26.90;51.40;;;;;;10450295;28;20300;-85
2023/06/24 17:10:08;;;;;;;3.20;3.00;;;26.90;52.30;;;;;;10450125;28;20218;-85
2023/06/24 17:15:11;;;;;;;3.47;3.27;;;26.80;52.90;;;;;;10450802;28;20326;-84
2023/06/24 17:20:13;;;;;;;3.40;3.20;;;26.80;52.60;;;;;;10455648;28;20219;-84
2023/06/24 17:25:15;;;;;;;3.43;3.23;;;26.70;53.20;;;;;;10452178;28;20221;-84
2023/06/24 17:30:19;;;;;;;3.50;3.30;;;26.70;52.00;;;;;;10447905;28;20194;-84
2023/06/24 17:35:21;;;;;;;3.87;3.57;;;26.70;51.60;;;;;;10443010;28;20249;-84
2023/06/24 17:40:24;;;;;;;3.50;3.20;;;26.70;51.00;;;;;;10448710;28;20608;-84
2023/06/24 17:45:27;;;;;;;4.17;3.87;;;26.60;53.10;;;;;;10431490;28;20233;-84
2023/06/24 17:50:32;;;;;;;4.20;3.80;;;26.50;53.30;;;;;;10444894;28;20186;-86
2023/06/24 17:55:35;;;;;;;3.90;3.60;;;26.50;53.60;;;;;;10445792;28;20603;-86
2023/06/24 18:00:39;;;;;;;3.33;3.13;;;26.50;51.20;;;;;;10429295;28;20218;-86
2023/06/24 18:05:41;;;;;;;3.20;3.00;;;26.50;52.20;;;;;;10431047;28;20218;-86
2023/06/24 18:10:43;;;;;;;3.77;3.47;;;26.50;52.80;;;;;;10449445;28;20190;-85
2023/06/24 18:15:47;;;;;;;3.70;3.40;;;26.50;52.60;;;;;;10450260;28;20688;-82
2023/06/24 18:20:49;;;;;;;3.57;3.30;;;26.40;52.90;;;;;;10447610;28;20231;-83
2023/06/24 18:25:51;;;;;;;5.03;3.40;;;26.40;52.50;;;;;;10447470;28;20214;-83
2023/06/24 18:30:54;;;;;;;4.53;3.70;;;26.30;51.90;;;;;;10446807;28;20214;-84
2023/06/24 18:35:56;;;;;;;3.50;3.20;;;26.20;53.30;;;;;;10444823;28;20213;-86
2023/06/24 18:40:59;;;;;;;3.70;3.40;;;26.20;52.30;;;;;;10444178;28;20226;-85
2023/06/24 18:46:02;;;;;;;3.73;3.50;;;26.20;52.60;;;;;;10430424;28;20752;-84
2023/06/24 18:51:04;;;;;;;3.50;3.30;;;26.10;53.20;;;;;;10442956;28;20250;-85
2023/06/24 18:56:06;;;;;;;3.77;3.47;;;26.00;53.90;;;;;;10443004;28;20221;-85
2023/06/24 19:01:10;;;;;;;3.97;3.77;;;26.00;53.70;;;;;;10426067;28;20214;-85
2023/06/24 19:06:13;;;;;;;3.50;3.20;;;25.90;53.40;;;;;;10449441;28;20228;-85
2023/06/24 19:11:15;;;;;;;3.93;3.63;;;25.80;54.10;;;;;;10451748;28;20198;-83
2023/06/24 19:16:19;;;;;;;3.70;3.40;;;25.80;54.80;;;;;;10421333;28;20354;-85
2023/06/24 19:21:21;;;;;;;4.30;4.00;;;25.70;56.00;;;;;;10435272;28;20321;-84
2023/06/24 19:26:23;;;;;;;4.20;3.90;;;25.60;60.00;;;;;;10417290;28;20245;-84
2023/06/24 19:31:27;;;;;;;3.90;3.60;;;25.50;57.70;;;;;;10443605;28;20230;-82
2023/06/24 19:36:29;;;;;;;3.97;3.67;;;25.40;57.10;;;;;;10434500;28;20268;-84
2023/06/24 19:41:31;;;;;;;3.60;3.30;;;25.30;57.50;;;;;;10424111;28;20246;-84
2023/06/24 19:46:36;;;;;;;4.60;4.20;;;25.10;58.00;;;;;;10411214;28;20233;-85
2023/06/24 19:51:38;;;;;;;4.13;3.73;;;25.00;58.40;;;;;;10434607;28;20650;-85
2023/06/24 19:56:40;;;;;;;4.40;3.97;;;24.90;58.60;;;;;;10413958;28;20241;-83
2023/06/24 20:01:44;;;;;;;4.70;4.30;;;24.80;59.20;;;;;;10413268;28;20649;-83
2023/06/24 20:06:46;;;;;;;3.90;3.60;;;24.70;59.60;;;;;;10427637;28;20680;-83
2023/06/24 20:11:48;;;;;;;4.60;4.23;;;24.50;60.00;;;;;;10426832;28;20233;-83
2023/06/24 20:16:52;;;;;;;4.37;4.00;;;24.40;59.80;;;;;;10429723;28;20249;-83
2023/06/24 20:21:54;;;;;;;4.00;3.67;;;24.30;59.90;;;;;;10412951;28;20641;-83
2023/06/24 20:26:56;;;;;;;4.37;3.97;;;24.20;60.20;;;;;;10429240;28;20280;-83
2023/06/24 20:31:59;;;;;;;4.60;4.20;;;24.10;60.70;;;;;;10431108;28;20198;-84
2023/06/24 20:37:02;;;;;;;3.93;3.63;;;24.00;61.10;;;;;;10429589;28;20712;-83
2023/06/24 20:42:04;;;;;;;4.23;3.93;;;24.00;61.40;;;;;;10416783;28;20768;-83
2023/06/24 20:47:08;;;;;;;4.20;3.83;;;23.90;61.50;;;;;;10428011;28;20230;-84
2023/06/24 20:52:10;;;;;;;3.50;3.30;;;23.80;62.80;;;;;;10422043;28;20186;-83
2023/06/24 20:57:12;;;;;;;4.30;3.90;;;23.80;62.70;;;;;;10425820;28;20269;-85
2023/06/24 21:02:16;;;;;;;4.63;4.33;;;23.70;62.80;;;;;;10434352;28;20625;-84
2023/06/24 21:07:18;;;;;;;4.23;3.93;;;23.70;61.70;;;;;;10428232;28;20222;-85
2023/06/24 21:12:20;;;;;;;6.07;5.57;;;23.70;63.40;;;;;;10444628;28;20205;-85
2023/06/24 21:17:23;;;;;;;4.77;4.37;;;23.60;63.80;;;;;;10439754;28;20225;-84
2023/06/24 21:22:26;;;;;;;4.03;3.73;;;23.60;63.40;;;;;;10421582;28;20233;-84
2023/06/24 21:27:28;;;;;;;5.70;4.13;;;23.60;63.80;;;;;;10419295;28;20219;-84
2023/06/24 21:32:32;;;;;;;4.70;4.37;;;23.50;64.10;;;;;;10382031;28;20622;-84
2023/06/24 21:37:34;;;;;;;5.00;4.60;;;23.50;63.40;;;;;;10425032;28;20218;-84
2023/06/24 21:42:36;;;;;;;4.83;4.47;;;23.40;63.70;;;;;;10426646;28;20214;-85
2023/06/24 21:47:39;;;;;;;5.10;4.60;;;23.40;63.50;;;;;;10432882;28;20213;-85
2023/06/24 21:52:42;;;;;;;4.47;4.17;;;23.30;64.40;;;;;;10443501;28;20194;-84
2023/06/24 21:57:44;;;;;;;5.47;5.07;;;23.20;65.10;;;;;;10437366;28;20283;-86
2023/06/24 22:02:48;;;;;;;5.00;4.50;;;23.20;64.80;;;;;;10419239;28;20217;-84
2023/06/24 22:07:50;;;;;;;5.00;4.60;;;23.10;65.90;;;;;;10433608;28;20211;-85
2023/06/24 22:12:52;;;;;;;4.83;4.43;;;23.10;66.00;;;;;;10421810;28;20591;-85
2023/06/24 22:17:56;;;;;;;4.97;4.60;;;23.00;66.10;;;;;;10431507;28;20293;-84
2023/06/24 22:22:58;;;;;;;6.70;5.27;;;23.00;66.80;;;;;;10439262;28;20272;-85
2023/06/24 22:28:01;;;;;;;4.67;4.00;;;22.90;67.10;;;;;;10472823;28;20293;-84
2023/06/24 22:33:04;;;;;;;7.77;5.00;;;22.80;67.50;;;;;;10453766;28;20194;-85
2023/06/24 22:38:06;;;;;;;5.30;4.90;;;22.80;67.10;;;;;;10472120;28;20210;-86
2023/06/24 22:43:08;;;;;;;4.83;4.53;;;22.70;67.40;;;;;;10479150;28;20271;-86
2023/06/24 22:48:12;;;;;;;6.10;4.80;;;22.70;67.50;;;;;;10457136;28;20202;-85
2023/06/24 22:53:15;;;;;;;5.73;5.30;;;22.50;68.30;;;;;;10463863;28;20609;-85
2023/06/24 22:58:17;;;;;;;4.30;3.90;;;22.50;70.20;;;;;;10452866;28;20225;-84
2023/06/24 23:03:21;;;;;;;4.53;4.13;;;22.40;69.50;;;;;;10465430;28;20226;-86
2023/06/24 23:08:24;;;;;;;4.50;4.20;;;22.40;69.80;;;;;;10451695;28;20214;-84
2023/06/24 23:13:26;;;;;;;5.90;5.40;;;22.30;68.80;;;;;;10473136;28;20242;-83
2023/06/24 23:18:30;;;;;;;8.07;7.27;;;22.30;70.00;;;;;;10439653;28;20215;-84
2023/06/24 23:23:37;;;;;;;10.37;9.27;;;22.20;69.80;;;;;;10464761;28;20235;-84
2023/06/24 23:28:44;;;;;;;10.93;9.93;;;22.10;69.80;;;;;;10448460;28;20202;-85
2023/06/24 23:33:49;;;;;;;17.10;15.30;;;22.10;70.50;;;;;;10411468;28;20194;-85
2023/06/24 23:38:51;;;;;;;20.60;18.37;;;22.00;71.40;;;;;;10435037;28;20418;-84
2023/06/24 23:43:54;;;;;;;21.70;19.40;;;22.00;71.40;;;;;;10416268;28;20578;-85
2023/06/24 23:48:57;;;;;;;23.43;20.50;;;22.00;71.40;;;;;;10429348;28;20209;-85
2023/06/24 23:54:00;;;;;;;22.87;20.47;;;21.90;71.30;;;;;;10427617;28;20214;-85
2023/06/24 23:59:02;;;;;;;25.20;22.60;;;21.90;72.10;;;;;;10428842;28;20223;-85
